createdAt,value
2016-08-17T00:00:00.836Z,26.3
2016-08-17T00:00:10.844Z,26.8
2016-08-17T00:00:20.843Z,26.4
2016-08-17T00:00:30.850Z,26.9
2016-08-17T00:00:40.844Z,26.8
2016-08-17T00:00:50.850Z,26.7
2016-08-17T00:01:00.848Z,26.7
2016-08-17T00:01:10.861Z,26.7
2016-08-17T00:01:20.863Z,27.2
2016-08-17T00:01:30.130Z,27.3
2016-08-17T00:01:40.866Z,26.7
2016-08-17T00:01:50.870Z,26.5
2016-08-17T00:02:00.869Z,26.7
2016-08-17T00:02:10.885Z,26.7
2016-08-17T00:02:20.146Z,27.5
2016-08-17T00:02:30.153Z,26.6
2016-08-17T00:02:40.882Z,26.6
2016-08-17T00:02:50.888Z,26.6
2016-08-17T00:03:00.154Z,26.7
2016-08-17T00:03:10.907Z,26.9
2016-08-17T00:03:20.899Z,27.1
2016-08-17T00:03:30.909Z,26.9
2016-08-17T00:03:40.906Z,26.9
2016-08-17T00:03:50.906Z,26.6
2016-08-17T00:04:00.920Z,26.9
2016-08-17T00:04:10.920Z,26.4
2016-08-17T00:04:20.918Z,26.8
2016-08-17T00:04:30.190Z,26.7
2016-08-17T00:04:40.924Z,26.7
2016-08-17T00:04:50.928Z,26.5
2016-08-17T00:05:00.928Z,26.8
2016-08-17T00:05:10.931Z,26.5
2016-08-17T00:05:20.935Z,26.7
2016-08-17T00:05:30.935Z,26.8
2016-08-17T00:05:40.943Z,26.7
2016-08-17T00:05:50.953Z,26.7
2016-08-17T00:06:00.947Z,27.3
2016-08-17T00:06:10.949Z,26.9
2016-08-17T00:06:20.955Z,27.5
2016-08-17T00:06:30.958Z,26.9
2016-08-17T00:06:40.959Z,26.9
2016-08-17T00:06:50.964Z,26.6
2016-08-17T00:07:00.967Z,27.4
2016-08-17T00:07:10.974Z,27.1
2016-08-17T00:07:20.268Z,26.5
2016-08-17T00:07:30.251Z,26.9
2016-08-17T00:07:40.982Z,27.1
2016-08-17T00:07:50.985Z,26.7
2016-08-17T00:08:00.983Z,26.6
2016-08-17T00:08:10.995Z,27
2016-08-17T00:08:21.056Z,27.2
2016-08-17T00:08:30.992Z,27.2
2016-08-17T00:08:40.995Z,27.3
2016-08-17T00:08:51.000Z,27.2
2016-08-17T00:09:01.015Z,27
2016-08-17T00:09:11.011Z,27.4
2016-08-17T00:09:21.015Z,26.8
2016-08-17T00:09:31.015Z,27
2016-08-17T00:09:41.018Z,27.1
2016-08-17T00:09:51.026Z,26.8
2016-08-17T00:10:01.021Z,27.1
2016-08-17T00:10:10.297Z,26.9
2016-08-17T00:10:21.032Z,26.9
2016-08-17T00:10:31.032Z,27.2
2016-08-17T00:10:41.042Z,27.2
2016-08-17T00:10:50.319Z,27.2
2016-08-17T00:11:01.043Z,27
2016-08-17T00:11:11.050Z,26.7
2016-08-17T00:11:21.051Z,27.1
2016-08-17T00:11:31.056Z,27.6
2016-08-17T00:11:41.062Z,27.1
2016-08-17T00:11:51.058Z,27.1
2016-08-17T00:12:01.064Z,27.5
2016-08-17T00:12:11.075Z,27
2016-08-17T00:12:21.073Z,27.1
2016-08-17T00:12:31.069Z,27.5
2016-08-17T00:12:41.080Z,27
2016-08-17T00:12:51.079Z,27.1
2016-08-17T00:13:01.081Z,27
2016-08-17T00:13:10.354Z,27.1
2016-08-17T00:13:21.089Z,27.5
2016-08-17T00:13:31.104Z,27.4
2016-08-17T00:13:41.094Z,27.5
2016-08-17T00:13:51.105Z,27.3
2016-08-17T00:14:01.105Z,27.1
2016-08-17T00:14:11.111Z,27.3
2016-08-17T00:14:21.107Z,27.4
2016-08-17T00:14:31.113Z,27.1
2016-08-17T00:14:41.124Z,27.3
2016-08-17T00:14:51.123Z,28
2016-08-17T00:15:01.123Z,27.6
2016-08-17T00:15:11.126Z,27.5
2016-08-17T00:15:21.123Z,27.8
2016-08-17T00:15:30.393Z,27.5
2016-08-17T00:15:41.134Z,28
2016-08-17T00:15:50.407Z,27.4
2016-08-17T00:16:01.140Z,27.7
2016-08-17T00:16:11.140Z,27.6
2016-08-17T00:16:21.143Z,27.9
2016-08-17T00:16:31.147Z,27.8
2016-08-17T00:16:41.149Z,27.8
2016-08-17T00:16:51.153Z,27.7
2016-08-17T00:17:00.438Z,27.3
2016-08-17T00:17:11.160Z,27.9
2016-08-17T00:17:21.169Z,27.8
2016-08-17T00:17:31.187Z,27.5
2016-08-17T00:17:41.170Z,28
2016-08-17T00:17:51.188Z,28.3
2016-08-17T00:18:00.445Z,28.3
2016-08-17T00:18:11.183Z,27.9
2016-08-17T00:18:21.178Z,27.8
2016-08-17T00:18:31.187Z,27.6
2016-08-17T00:18:41.191Z,27.7
2016-08-17T00:18:51.192Z,28.2
2016-08-17T00:19:00.474Z,28.3
2016-08-17T00:19:11.200Z,28.3
2016-08-17T00:19:21.205Z,27.7
2016-08-17T00:19:31.205Z,27.5
2016-08-17T00:19:41.205Z,27.6
2016-08-17T00:19:51.211Z,28.3
2016-08-17T00:20:01.221Z,27.5
2016-08-17T00:20:11.218Z,27.6
2016-08-17T00:20:21.218Z,27.8
2016-08-17T00:20:31.221Z,27.5
2016-08-17T00:20:41.230Z,27.9
2016-08-17T00:20:50.493Z,28.1
2016-08-17T00:21:01.231Z,28
2016-08-17T00:21:11.235Z,28.3
2016-08-17T00:21:21.240Z,28.3
2016-08-17T00:21:31.248Z,27.4
2016-08-17T00:21:41.251Z,27.5
2016-08-17T00:21:51.250Z,28.1
2016-08-17T00:22:01.256Z,27.6
2016-08-17T00:22:11.255Z,27.6
2016-08-17T00:22:21.260Z,27.7
2016-08-17T00:22:31.261Z,28
2016-08-17T00:22:41.273Z,27.5
2016-08-17T00:22:51.271Z,28
2016-08-17T00:23:01.284Z,27.9
2016-08-17T00:23:11.273Z,27.5
2016-08-17T00:23:21.278Z,27.8
2016-08-17T00:23:31.282Z,27.8
2016-08-17T00:23:41.286Z,28
2016-08-17T00:23:51.294Z,28.4
2016-08-17T00:24:01.295Z,28.2
2016-08-17T00:24:11.293Z,28.3
2016-08-17T00:24:21.347Z,28.2
2016-08-17T00:24:31.305Z,28.2
2016-08-17T00:24:41.301Z,28
2016-08-17T00:24:51.306Z,27.8
2016-08-17T00:25:01.312Z,28
2016-08-17T00:25:11.314Z,27.7
2016-08-17T00:25:20.588Z,28
2016-08-17T00:25:31.313Z,27.8
2016-08-17T00:25:40.589Z,28.1
2016-08-17T00:25:51.332Z,27.9
2016-08-17T00:26:01.336Z,27.6
2016-08-17T00:26:11.334Z,28.3
2016-08-17T00:26:21.336Z,28.4
2016-08-17T00:26:31.338Z,28.3
2016-08-17T00:26:41.341Z,28.3
2016-08-17T00:26:51.353Z,27.7
2016-08-17T00:27:00.619Z,27.7
2016-08-17T00:27:11.350Z,27.8
2016-08-17T00:27:21.355Z,27.7
2016-08-17T00:27:31.356Z,27.7
2016-08-17T00:27:41.360Z,27.6
2016-08-17T00:27:51.364Z,27.4
2016-08-17T00:28:00.635Z,27.9
2016-08-17T00:28:11.368Z,27.6
2016-08-17T00:28:21.380Z,27.6
2016-08-17T00:28:31.376Z,27.8
2016-08-17T00:28:41.379Z,28.2
2016-08-17T00:28:51.384Z,27.5
2016-08-17T00:29:01.387Z,27.7
2016-08-17T00:29:11.384Z,27.4
2016-08-17T00:29:21.395Z,27.4
2016-08-17T00:29:31.402Z,27.5
2016-08-17T00:29:41.406Z,28.1
2016-08-17T00:29:50.667Z,27.6
2016-08-17T00:30:01.406Z,27.5
2016-08-17T00:30:11.410Z,27.3
2016-08-17T00:30:21.413Z,27.3
2016-08-17T00:30:31.415Z,27.5
2016-08-17T00:30:40.689Z,28
2016-08-17T00:30:51.420Z,27.5
2016-08-17T00:31:01.424Z,27.3
2016-08-17T00:31:11.428Z,27.5
2016-08-17T00:31:21.429Z,27.4
2016-08-17T00:31:31.429Z,27.4
2016-08-17T00:31:41.433Z,27.4
2016-08-17T00:31:51.441Z,28
2016-08-17T00:32:01.448Z,27.5
2016-08-17T00:32:10.719Z,28.2
2016-08-17T00:32:21.450Z,27.7
2016-08-17T00:32:31.453Z,27.3
2016-08-17T00:32:41.456Z,27.8
2016-08-17T00:32:51.463Z,27.8
2016-08-17T00:33:01.461Z,27.3
2016-08-17T00:33:11.467Z,27.6
2016-08-17T00:33:21.470Z,27.7
2016-08-17T00:33:31.467Z,27.9
2016-08-17T00:33:41.479Z,27.8
2016-08-17T00:33:51.477Z,27.5
2016-08-17T00:34:00.752Z,28
2016-08-17T00:34:11.484Z,27.6
2016-08-17T00:34:21.482Z,27.5
2016-08-17T00:34:31.491Z,28.3
2016-08-17T00:34:41.491Z,27.6
2016-08-17T00:34:50.769Z,27.4
2016-08-17T00:35:01.500Z,27.1
2016-08-17T00:35:11.502Z,27.4
2016-08-17T00:35:21.506Z,27.6
2016-08-17T00:35:31.507Z,27.1
2016-08-17T00:35:41.512Z,27.4
2016-08-17T00:35:51.521Z,27.4
2016-08-17T00:36:00.797Z,28.3
2016-08-17T00:36:11.532Z,27.4
2016-08-17T00:36:21.530Z,27.5
2016-08-17T00:36:30.797Z,27.4
2016-08-17T00:36:41.534Z,27.4
2016-08-17T00:36:51.534Z,27.5
2016-08-17T00:37:00.807Z,27.2
2016-08-17T00:37:10.808Z,27.3
2016-08-17T00:37:21.542Z,27.3
2016-08-17T00:37:30.821Z,27.4
2016-08-17T00:37:41.563Z,27.1
2016-08-17T00:37:51.571Z,27.3
2016-08-17T00:38:01.557Z,27.2
2016-08-17T00:38:11.558Z,28.2
2016-08-17T00:38:21.566Z,27.4
2016-08-17T00:38:31.563Z,27.4
2016-08-17T00:38:40.832Z,27.2
2016-08-17T00:38:51.572Z,27.3
2016-08-17T00:39:00.836Z,27.4
2016-08-17T00:39:11.588Z,28
2016-08-17T00:39:20.853Z,27.8
2016-08-17T00:39:31.585Z,27.2
2016-08-17T00:39:40.867Z,27.2
2016-08-17T00:39:51.590Z,27.2
2016-08-17T00:40:01.597Z,27.4
2016-08-17T00:40:11.605Z,28
2016-08-17T00:40:21.601Z,27.3
2016-08-17T00:40:31.604Z,27.3
2016-08-17T00:40:41.607Z,27.4
2016-08-17T00:40:51.616Z,27.1
2016-08-17T00:41:01.607Z,27.2
2016-08-17T00:41:11.618Z,27.8
2016-08-17T00:41:21.620Z,27.4
2016-08-17T00:41:31.626Z,27.1
2016-08-17T00:41:41.623Z,27.8
2016-08-17T00:41:51.633Z,27.9
2016-08-17T00:42:00.902Z,27.1
2016-08-17T00:42:11.634Z,27.7
2016-08-17T00:42:21.636Z,27.3
2016-08-17T00:42:31.643Z,27.4
2016-08-17T00:42:41.642Z,27.7
2016-08-17T00:42:51.649Z,27.3
2016-08-17T00:43:00.923Z,27.8
2016-08-17T00:43:11.655Z,27.2
2016-08-17T00:43:21.655Z,27.4
2016-08-17T00:43:31.661Z,27.5
2016-08-17T00:43:41.663Z,27.3
2016-08-17T00:43:51.668Z,26.9
2016-08-17T00:44:01.671Z,27.6
2016-08-17T00:44:11.673Z,27.4
2016-08-17T00:44:21.680Z,27.3
2016-08-17T00:44:31.686Z,27.7
2016-08-17T00:44:41.683Z,28
2016-08-17T00:44:51.689Z,27.2
2016-08-17T00:45:01.688Z,27.7
2016-08-17T00:45:11.696Z,27.6
2016-08-17T00:45:21.704Z,27.4
2016-08-17T00:45:31.702Z,27.3
2016-08-17T00:45:41.702Z,27.8
2016-08-17T00:45:51.705Z,27.3
2016-08-17T00:46:01.708Z,27.9
2016-08-17T00:46:11.713Z,27.2
2016-08-17T00:46:21.716Z,27.3
2016-08-17T00:46:31.716Z,27.2
2016-08-17T00:46:41.724Z,27.3
2016-08-17T00:46:50.988Z,27.9
2016-08-17T00:47:01.732Z,27.1
2016-08-17T00:47:11.004Z,27.2
2016-08-17T00:47:21.734Z,27.7
2016-08-17T00:47:31.737Z,27.1
2016-08-17T00:47:41.737Z,27.8
2016-08-17T00:47:51.742Z,27.3
2016-08-17T00:48:01.743Z,27.4
2016-08-17T00:48:11.752Z,27.3
2016-08-17T00:48:21.020Z,27.7
2016-08-17T00:48:31.755Z,27.3
2016-08-17T00:48:41.755Z,27.9
2016-08-17T00:48:51.762Z,27.6
2016-08-17T00:49:01.765Z,27.6
2016-08-17T00:49:11.768Z,27.4
2016-08-17T00:49:21.771Z,27.3
2016-08-17T00:49:31.781Z,27.3
2016-08-17T00:49:41.774Z,27.4
2016-08-17T00:49:51.783Z,27.5
2016-08-17T00:50:01.792Z,27.9
2016-08-17T00:50:11.058Z,28
2016-08-17T00:50:21.802Z,28
2016-08-17T00:50:31.795Z,27.5
2016-08-17T00:50:41.794Z,27.8
2016-08-17T00:50:51.797Z,28
2016-08-17T00:51:01.805Z,27.8
2016-08-17T00:51:11.809Z,27.3
2016-08-17T00:51:21.810Z,27.9
2016-08-17T00:51:31.814Z,27.9
2016-08-17T00:51:41.815Z,27.6
2016-08-17T00:51:51.837Z,27.3
2016-08-17T00:52:01.092Z,28.2
2016-08-17T00:52:11.831Z,27.6
2016-08-17T00:52:21.835Z,27.6
2016-08-17T00:52:31.837Z,27.6
2016-08-17T00:52:41.831Z,27.4
2016-08-17T00:52:51.835Z,28.3
2016-08-17T00:53:01.110Z,27.5
2016-08-17T00:53:11.846Z,27.8
2016-08-17T00:53:21.850Z,27.7
2016-08-17T00:53:31.849Z,27.6
2016-08-17T00:53:41.854Z,28.1
2016-08-17T00:53:51.857Z,28.2
2016-08-17T00:54:01.861Z,27.3
2016-08-17T00:54:11.860Z,27.7
2016-08-17T00:54:21.865Z,27.6
2016-08-17T00:54:31.872Z,27.7
2016-08-17T00:54:41.875Z,28.2
2016-08-17T00:54:51.872Z,27.6
2016-08-17T00:55:01.882Z,27.7
2016-08-17T00:55:11.881Z,27.7
2016-08-17T00:55:21.888Z,27.9
2016-08-17T00:55:31.886Z,27.6
2016-08-17T00:55:41.891Z,27.6
2016-08-17T00:55:51.896Z,27.9
2016-08-17T00:56:01.901Z,27.8
2016-08-17T00:56:11.909Z,27.7
2016-08-17T00:56:21.904Z,27.8
2016-08-17T00:56:31.171Z,28.3
2016-08-17T00:56:41.908Z,28.1
2016-08-17T00:56:51.913Z,28
2016-08-17T00:57:01.923Z,27.8
2016-08-17T00:57:11.927Z,28.4
2016-08-17T00:57:21.928Z,27.7
2016-08-17T00:57:31.925Z,27.8
2016-08-17T00:57:41.926Z,28.1
2016-08-17T00:57:51.929Z,27.6
2016-08-17T00:58:01.934Z,28.5
2016-08-17T00:58:11.940Z,28
2016-08-17T00:58:21.944Z,28.2
2016-08-17T00:58:31.945Z,28.1
2016-08-17T00:58:41.954Z,28.1
2016-08-17T00:58:51.963Z,28.8
2016-08-17T00:59:01.955Z,28.2
2016-08-17T00:59:11.961Z,28.1
2016-08-17T00:59:21.962Z,28.6
2016-08-17T00:59:31.968Z,28.4
2016-08-17T00:59:41.966Z,28
2016-08-17T00:59:51.969Z,28.1
2016-08-17T01:00:01.980Z,27.8
2016-08-17T01:00:11.972Z,28.2
2016-08-17T01:00:21.977Z,28.3
2016-08-17T01:00:31.992Z,28.4
2016-08-17T01:00:41.987Z,28.6
2016-08-17T01:00:51.990Z,28.5
2016-08-17T01:01:01.988Z,28.5
2016-08-17T01:01:11.997Z,28.3
2016-08-17T01:01:21.997Z,28.2
2016-08-17T01:01:31.272Z,28
2016-08-17T01:01:42.005Z,28.8
2016-08-17T01:01:52.011Z,28.2
2016-08-17T01:02:02.011Z,28.2
2016-08-17T01:02:12.013Z,28.5
2016-08-17T01:02:22.020Z,28.1
2016-08-17T01:02:31.296Z,28.3
2016-08-17T01:02:42.027Z,28.1
2016-08-17T01:02:51.293Z,28.1
2016-08-17T01:03:02.034Z,28.1
2016-08-17T01:03:12.036Z,28.3
2016-08-17T01:03:22.036Z,27.9
2016-08-17T01:03:32.042Z,28
2016-08-17T01:03:42.044Z,28.2
2016-08-17T01:03:52.046Z,28.3
2016-08-17T01:04:02.064Z,28.2
2016-08-17T01:04:12.055Z,27.8
2016-08-17T01:04:21.325Z,28
2016-08-17T01:04:32.059Z,28
2016-08-17T01:04:42.062Z,28.4
2016-08-17T01:04:52.064Z,27.8
2016-08-17T01:05:02.070Z,28.4
2016-08-17T01:05:11.347Z,28.1
2016-08-17T01:05:22.077Z,28.3
2016-08-17T01:05:32.078Z,28.1
2016-08-17T01:05:41.353Z,27.7
2016-08-17T01:05:52.096Z,27.8
2016-08-17T01:06:02.091Z,27.6
2016-08-17T01:06:12.093Z,28.3
2016-08-17T01:06:22.095Z,28.3
2016-08-17T01:06:32.096Z,28.4
2016-08-17T01:06:42.111Z,28.1
2016-08-17T01:06:52.106Z,27.9
2016-08-17T01:07:02.106Z,28.5
2016-08-17T01:07:12.111Z,28
2016-08-17T01:07:22.111Z,28.6
2016-08-17T01:07:32.116Z,28.1
2016-08-17T01:07:41.388Z,28.4
2016-08-17T01:07:52.124Z,28
2016-08-17T01:08:02.135Z,28.3
2016-08-17T01:08:12.125Z,28.6
2016-08-17T01:08:22.135Z,28.6
2016-08-17T01:08:32.136Z,27.8
2016-08-17T01:08:42.141Z,28.3
2016-08-17T01:08:52.138Z,28.9
2016-08-17T01:09:02.150Z,28.1
2016-08-17T01:09:12.147Z,27.9
2016-08-17T01:09:22.154Z,28
2016-08-17T01:09:32.150Z,28.6
2016-08-17T01:09:41.417Z,28.5
2016-08-17T01:09:52.163Z,27.8
2016-08-17T01:10:02.164Z,28.6
2016-08-17T01:10:12.166Z,28.2
2016-08-17T01:10:22.174Z,28
2016-08-17T01:10:32.170Z,28.2
2016-08-17T01:10:42.186Z,28.2
2016-08-17T01:10:51.445Z,28.3
2016-08-17T01:11:01.451Z,28.5
2016-08-17T01:11:12.180Z,28.2
2016-08-17T01:11:22.187Z,28.2
2016-08-17T01:11:32.194Z,28
2016-08-17T01:11:42.193Z,28.4
2016-08-17T01:11:51.468Z,28.1
2016-08-17T01:12:01.469Z,28.4
2016-08-17T01:12:12.208Z,28.3
2016-08-17T01:12:22.210Z,28.4
2016-08-17T01:12:32.207Z,28
2016-08-17T01:12:41.486Z,28.1
2016-08-17T01:12:52.224Z,27.8
2016-08-17T01:13:02.215Z,28
2016-08-17T01:13:12.226Z,27.9
2016-08-17T01:13:21.513Z,28.1
2016-08-17T01:13:32.233Z,27.7
2016-08-17T01:13:42.236Z,27.9
2016-08-17T01:13:52.243Z,27.7
2016-08-17T01:14:01.509Z,28.1
2016-08-17T01:14:12.244Z,28
2016-08-17T01:14:22.243Z,28.1
2016-08-17T01:14:31.522Z,28.3
2016-08-17T01:14:42.263Z,28.7
2016-08-17T01:14:52.274Z,28.1
2016-08-17T01:15:02.260Z,28
2016-08-17T01:15:11.525Z,27.9
2016-08-17T01:15:22.262Z,27.8
2016-08-17T01:15:32.268Z,28.4
2016-08-17T01:15:42.265Z,28.1
2016-08-17T01:15:52.273Z,27.8
2016-08-17T01:16:01.557Z,27.8
2016-08-17T01:16:11.540Z,27.8
2016-08-17T01:16:21.553Z,28.2
2016-08-17T01:16:32.287Z,28.2
2016-08-17T01:16:42.292Z,28.1
2016-08-17T01:16:52.290Z,28.1
2016-08-17T01:17:02.297Z,28.2
2016-08-17T01:17:11.573Z,28
2016-08-17T01:17:22.312Z,28.1
2016-08-17T01:17:32.315Z,27.8
2016-08-17T01:17:42.310Z,28.1
2016-08-17T01:17:52.312Z,28.3
2016-08-17T01:18:02.315Z,28.4
2016-08-17T01:18:12.318Z,28.5
2016-08-17T01:18:22.318Z,28.1
2016-08-17T01:18:32.326Z,28.4
2016-08-17T01:18:42.329Z,28
2016-08-17T01:18:52.329Z,28.1
2016-08-17T01:19:02.332Z,28.8
2016-08-17T01:19:12.338Z,28.1
2016-08-17T01:19:22.344Z,28
2016-08-17T01:19:32.346Z,28.2
2016-08-17T01:19:42.347Z,28.2
2016-08-17T01:19:52.349Z,28.1
2016-08-17T01:20:02.351Z,28.3
2016-08-17T01:20:12.362Z,28.7
2016-08-17T01:20:22.356Z,28.2
2016-08-17T01:20:32.366Z,28.6
2016-08-17T01:20:42.365Z,28.9
2016-08-17T01:20:52.372Z,28.8
2016-08-17T01:21:02.373Z,28.2
2016-08-17T01:21:11.637Z,28.3
2016-08-17T01:21:22.382Z,28.4
2016-08-17T01:21:32.383Z,28.5
2016-08-17T01:21:42.382Z,28.4
2016-08-17T01:21:51.658Z,28.6
2016-08-17T01:22:02.398Z,28.9
2016-08-17T01:22:12.395Z,28.5
2016-08-17T01:22:22.399Z,28.4
2016-08-17T01:22:32.400Z,29.3
2016-08-17T01:22:42.405Z,28.3
2016-08-17T01:22:52.407Z,28.5
2016-08-17T01:23:02.405Z,29.2
2016-08-17T01:23:12.408Z,29.1
2016-08-17T01:23:21.687Z,28.6
2016-08-17T01:23:31.694Z,28.7
2016-08-17T01:23:42.420Z,29.2
2016-08-17T01:23:52.430Z,28.8
2016-08-17T01:24:02.429Z,28.6
2016-08-17T01:24:12.433Z,29.4
2016-08-17T01:24:22.445Z,29.4
2016-08-17T01:24:32.437Z,29
2016-08-17T01:24:42.443Z,29.5
2016-08-17T01:24:52.443Z,29.4
2016-08-17T01:25:02.446Z,29
2016-08-17T01:25:12.451Z,29
2016-08-17T01:25:22.475Z,28.7
2016-08-17T01:25:32.458Z,28.7
2016-08-17T01:25:41.723Z,28.9
2016-08-17T01:25:52.463Z,29.1
2016-08-17T01:26:02.467Z,29.4
2016-08-17T01:26:12.472Z,28.9
2016-08-17T01:26:22.475Z,29
2016-08-17T01:26:32.477Z,28.9
2016-08-17T01:26:42.485Z,28.8
2016-08-17T01:26:52.481Z,29.2
2016-08-17T01:27:02.487Z,29.5
2016-08-17T01:27:12.497Z,28.8
2016-08-17T01:27:22.491Z,28.9
2016-08-17T01:27:32.496Z,28.9
2016-08-17T01:27:42.512Z,29
2016-08-17T01:27:52.502Z,29.2
2016-08-17T01:28:02.506Z,29.4
2016-08-17T01:28:12.511Z,28.7
2016-08-17T01:28:22.510Z,29
2016-08-17T01:28:32.513Z,29
2016-08-17T01:28:42.520Z,29.5
2016-08-17T01:28:52.519Z,29.4
2016-08-17T01:29:02.520Z,29.1
2016-08-17T01:29:12.535Z,29
2016-08-17T01:29:22.530Z,29.8
2016-08-17T01:29:32.529Z,29.4
2016-08-17T01:29:42.537Z,29.4
2016-08-17T01:29:52.538Z,29.4
2016-08-17T01:30:02.540Z,30
2016-08-17T01:30:12.545Z,29.3
2016-08-17T01:30:22.559Z,30
2016-08-17T01:30:31.822Z,29.4
2016-08-17T01:30:42.554Z,29.4
2016-08-17T01:30:52.558Z,29.1
2016-08-17T01:31:02.560Z,29.7
2016-08-17T01:31:12.568Z,29.3
2016-08-17T01:31:22.565Z,29.1
2016-08-17T01:31:32.574Z,29.2
2016-08-17T01:31:42.573Z,29.3
2016-08-17T01:31:52.580Z,29.8
2016-08-17T01:32:02.589Z,29.9
2016-08-17T01:32:11.849Z,29.9
2016-08-17T01:32:22.588Z,29.5
2016-08-17T01:32:32.587Z,29.5
2016-08-17T01:32:42.593Z,29.4
2016-08-17T01:32:52.603Z,30.1
2016-08-17T01:33:02.598Z,29.4
2016-08-17T01:33:12.601Z,29.3
2016-08-17T01:33:22.603Z,29.7
2016-08-17T01:33:32.610Z,29.1
2016-08-17T01:33:42.610Z,29.7
2016-08-17T01:33:52.618Z,29.6
2016-08-17T01:34:02.621Z,29.7
2016-08-17T01:34:12.621Z,29.4
2016-08-17T01:34:22.623Z,29.8
2016-08-17T01:34:32.628Z,29.6
2016-08-17T01:34:42.628Z,30
2016-08-17T01:34:52.635Z,30.2
2016-08-17T01:35:02.638Z,30.2
2016-08-17T01:35:12.637Z,29.7
2016-08-17T01:35:22.645Z,30.4
2016-08-17T01:35:31.920Z,29.8
2016-08-17T01:35:42.651Z,29.9
2016-08-17T01:35:52.652Z,30
2016-08-17T01:36:02.658Z,30.1
2016-08-17T01:36:12.666Z,29.9
2016-08-17T01:36:21.930Z,29.9
2016-08-17T01:36:32.668Z,29.7
2016-08-17T01:36:42.669Z,30.1
2016-08-17T01:36:52.671Z,29.7
2016-08-17T01:37:02.686Z,29.4
2016-08-17T01:37:12.677Z,29.8
2016-08-17T01:37:22.682Z,29.9
2016-08-17T01:37:32.689Z,29.4
2016-08-17T01:37:42.689Z,30.1
2016-08-17T01:37:52.688Z,30.2
2016-08-17T01:38:02.692Z,29.6
2016-08-17T01:38:12.700Z,30.3
2016-08-17T01:38:22.698Z,29.7
2016-08-17T01:38:32.698Z,29.8
2016-08-17T01:38:42.700Z,30.3
2016-08-17T01:38:52.708Z,29.7
2016-08-17T01:39:02.709Z,29.6
2016-08-17T01:39:11.976Z,29.6
2016-08-17T01:39:22.718Z,30
2016-08-17T01:39:32.727Z,29.9
2016-08-17T01:39:42.727Z,30.1
2016-08-17T01:39:52.729Z,29.3
2016-08-17T01:40:02.731Z,29.6
2016-08-17T01:40:12.733Z,30
2016-08-17T01:40:22.733Z,29.4
2016-08-17T01:40:32.739Z,30.3
2016-08-17T01:40:42.747Z,29.7
2016-08-17T01:40:52.747Z,29.5
2016-08-17T01:41:02.749Z,29.9
2016-08-17T01:41:12.751Z,29.5
2016-08-17T01:41:22.763Z,30.1
2016-08-17T01:41:31.303Z,29.6
2016-08-17T01:41:42.775Z,30.2
2016-08-17T01:41:52.767Z,29.9
2016-08-17T01:42:02.767Z,29.5
2016-08-17T01:42:12.774Z,29.7
2016-08-17T01:42:22.771Z,29.6
2016-08-17T01:42:32.775Z,29.9
2016-08-17T01:42:42.784Z,29.6
2016-08-17T01:42:52.058Z,29.8
2016-08-17T01:43:02.785Z,29.8
2016-08-17T01:43:12.790Z,29.5
2016-08-17T01:43:22.065Z,29.5
2016-08-17T01:43:32.068Z,30.2
2016-08-17T01:43:42.803Z,29.7
2016-08-17T01:43:52.800Z,30.2
2016-08-17T01:44:02.802Z,30.1
2016-08-17T01:44:12.807Z,29.9
2016-08-17T01:44:22.812Z,29.9
2016-08-17T01:44:32.817Z,30.3
2016-08-17T01:44:42.085Z,29.9
2016-08-17T01:44:52.829Z,30.3
2016-08-17T01:45:02.825Z,30.3
2016-08-17T01:45:12.833Z,29.9
2016-08-17T01:45:22.829Z,29.7
2016-08-17T01:45:32.836Z,30.2
2016-08-17T01:45:42.839Z,29.9
2016-08-17T01:45:52.846Z,30
2016-08-17T01:46:02.852Z,30.7
2016-08-17T01:46:12.847Z,30.4
2016-08-17T01:46:22.847Z,30.1
2016-08-17T01:46:32.854Z,30.3
2016-08-17T01:46:42.119Z,30.1
2016-08-17T01:46:52.858Z,30
2016-08-17T01:47:02.866Z,30.1
2016-08-17T01:47:12.866Z,30.2
2016-08-17T01:47:22.870Z,30.3
2016-08-17T01:47:32.873Z,30.4
2016-08-17T01:47:42.877Z,30.4
2016-08-17T01:47:51.413Z,30.2
2016-08-17T01:48:02.883Z,30.5
2016-08-17T01:48:12.881Z,30
2016-08-17T01:48:22.888Z,30
2016-08-17T01:48:32.890Z,30.3
2016-08-17T01:48:42.894Z,30.3
2016-08-17T01:48:52.898Z,30.2
2016-08-17T01:49:02.901Z,30.7
2016-08-17T01:49:12.902Z,30.3
2016-08-17T01:49:23.063Z,30.3
2016-08-17T01:49:32.909Z,30.1
2016-08-17T01:49:42.908Z,30.4
2016-08-17T01:49:52.918Z,30.2
2016-08-17T01:50:02.917Z,30.3
2016-08-17T01:50:12.918Z,30.4
2016-08-17T01:50:22.926Z,30.2
2016-08-17T01:50:32.927Z,30.7
2016-08-17T01:50:42.931Z,30.3
2016-08-17T01:50:52.937Z,30.4
2016-08-17T01:51:02.939Z,30.3
2016-08-17T01:51:12.942Z,30.4
2016-08-17T01:51:22.939Z,30.3
2016-08-17T01:51:32.949Z,31
2016-08-17T01:51:42.946Z,30.2
2016-08-17T01:51:52.951Z,30.7
2016-08-17T01:52:02.222Z,30.5
2016-08-17T01:52:12.960Z,30.4
2016-08-17T01:52:22.970Z,30.9
2016-08-17T01:52:32.968Z,30.9
2016-08-17T01:52:42.969Z,31.1
2016-08-17T01:52:52.979Z,30.8
2016-08-17T01:53:02.974Z,31.2
2016-08-17T01:53:12.972Z,30.6
2016-08-17T01:53:22.258Z,30.3
2016-08-17T01:53:32.980Z,30.3
2016-08-17T01:53:42.988Z,30.5
2016-08-17T01:53:52.986Z,30.6
2016-08-17T01:54:02.993Z,30.5
2016-08-17T01:54:12.996Z,30.8
2016-08-17T01:54:23.050Z,30.7
2016-08-17T01:54:33.004Z,30.8
2016-08-17T01:54:43.008Z,30.7
2016-08-17T01:54:53.009Z,30.4
2016-08-17T01:55:03.009Z,31.1
2016-08-17T01:55:12.283Z,30.5
2016-08-17T01:55:23.039Z,30.5
2016-08-17T01:55:33.024Z,30.5
2016-08-17T01:55:43.026Z,30.6
2016-08-17T01:55:53.024Z,30.6
2016-08-17T01:56:03.027Z,31.3
2016-08-17T01:56:13.033Z,30.3
2016-08-17T01:56:23.039Z,30.5
2016-08-17T01:56:32.313Z,30.4
2016-08-17T01:56:43.048Z,30.3
2016-08-17T01:56:53.047Z,30.6
2016-08-17T01:57:02.323Z,30.6
2016-08-17T01:57:13.058Z,31
2016-08-17T01:57:23.051Z,31.3
2016-08-17T01:57:33.055Z,30.4
2016-08-17T01:57:43.063Z,30.9
2016-08-17T01:57:53.067Z,30.6
2016-08-17T01:58:03.070Z,30.6
2016-08-17T01:58:13.074Z,30.8
2016-08-17T01:58:23.073Z,31.4
2016-08-17T01:58:33.080Z,30.5
2016-08-17T01:58:43.077Z,30.9
2016-08-17T01:58:53.083Z,30.4
2016-08-17T01:59:03.086Z,30.6
2016-08-17T01:59:13.090Z,30.6
2016-08-17T01:59:23.095Z,30.9
2016-08-17T01:59:32.384Z,31.1
2016-08-17T01:59:43.099Z,30.8
2016-08-17T01:59:53.103Z,30.3
2016-08-17T02:00:03.103Z,30.5
2016-08-17T02:00:13.111Z,30.7
2016-08-17T02:00:23.114Z,30.8
2016-08-17T02:00:33.116Z,30.9
2016-08-17T02:00:43.117Z,30.3
2016-08-17T02:00:52.389Z,30.1
2016-08-17T02:01:03.122Z,30.2
2016-08-17T02:01:13.125Z,30.3
2016-08-17T02:01:23.135Z,30.7
2016-08-17T02:01:33.140Z,30.4
2016-08-17T02:01:43.138Z,30.1
2016-08-17T02:01:53.148Z,30.7
2016-08-17T02:02:03.150Z,30
2016-08-17T02:02:13.148Z,30.3
2016-08-17T02:02:22.420Z,30.4
2016-08-17T02:02:33.149Z,30.2
2016-08-17T02:02:43.155Z,30.7
2016-08-17T02:02:53.159Z,30.1
2016-08-17T02:03:03.166Z,30.7
2016-08-17T02:03:13.179Z,30.6
2016-08-17T02:03:23.171Z,30.7
2016-08-17T02:03:32.442Z,30.6
2016-08-17T02:03:43.174Z,31.1
2016-08-17T02:03:53.177Z,30.5
2016-08-17T02:04:03.182Z,31
2016-08-17T02:04:13.186Z,30.1
2016-08-17T02:04:23.185Z,30.4
2016-08-17T02:04:33.188Z,30.5
2016-08-17T02:04:43.196Z,30.3
2016-08-17T02:04:53.197Z,30.4
2016-08-17T02:05:02.475Z,30.5
2016-08-17T02:05:13.201Z,30.3
2016-08-17T02:05:23.212Z,31
2016-08-17T02:05:33.211Z,30.4
2016-08-17T02:05:43.223Z,30.2
2016-08-17T02:05:53.221Z,30.2
2016-08-17T02:06:03.220Z,30.9
2016-08-17T02:06:13.231Z,30.7
2016-08-17T02:06:22.499Z,30.5
2016-08-17T02:06:32.501Z,30.7
2016-08-17T02:06:43.234Z,30.2
2016-08-17T02:06:53.241Z,30.5
2016-08-17T02:07:03.233Z,30.5
2016-08-17T02:07:13.243Z,30.5
2016-08-17T02:07:23.246Z,30.7
2016-08-17T02:07:33.246Z,30.9
2016-08-17T02:07:43.250Z,30.3
2016-08-17T02:07:53.260Z,30.9
2016-08-17T02:08:03.256Z,30.8
2016-08-17T02:08:13.260Z,30.8
2016-08-17T02:08:23.260Z,31.1
2016-08-17T02:08:33.271Z,30.9
2016-08-17T02:08:43.268Z,31
2016-08-17T02:08:53.280Z,29.9
2016-08-17T02:09:03.273Z,30.5
2016-08-17T02:09:13.276Z,29.9
2016-08-17T02:09:23.289Z,30.1
2016-08-17T02:09:33.300Z,30.1
2016-08-17T02:09:43.285Z,30
2016-08-17T02:09:53.295Z,30
2016-08-17T02:10:03.294Z,30.1
2016-08-17T02:10:13.303Z,30.1
2016-08-17T02:10:22.571Z,30
2016-08-17T02:10:33.316Z,30.1
2016-08-17T02:10:43.311Z,30.5
2016-08-17T02:10:53.309Z,30
2016-08-17T02:11:03.316Z,30.1
2016-08-17T02:11:13.314Z,30
2016-08-17T02:11:23.317Z,30.2
2016-08-17T02:11:32.589Z,29.9
2016-08-17T02:11:43.324Z,29.9
2016-08-17T02:11:53.327Z,29.9
2016-08-17T02:12:03.331Z,30.2
2016-08-17T02:12:13.331Z,30.6
2016-08-17T02:12:23.340Z,30.1
2016-08-17T02:12:33.340Z,29.9
2016-08-17T02:12:43.352Z,29.7
2016-08-17T02:12:53.344Z,30.3
2016-08-17T02:13:03.350Z,29.8
2016-08-17T02:13:13.351Z,29.8
2016-08-17T02:13:23.363Z,29.6
2016-08-17T02:13:33.360Z,29.5
2016-08-17T02:13:43.364Z,29.6
2016-08-17T02:13:53.362Z,29.7